• Join FlightAware (Why Join?)
  • Login
  • US Flag 
04:21AM EDT


 

Airport Tracker/Info


-or-


 

Live Flight TrackerFlight Track Log ✈ ASQ4209 ✈ 26-May-2013 ✈ KDAY - KCLE

Flight Track Log - Related Links

Times and Time Zones

All times are in EDT time to prevent confusion due to time zone crossing. See the ASQ4209 flight status page for this flight to view local times or setup timezone preferences in your user account.

Time Position Orientation Groundspeed Altitude Reporting Facility
EDT Latitude Longitude Course Direction KTS MPH feet Rate Location/Type
07:08AM 39.9067 -84.1936 74° East 171 197 1,600  Level Indianapolis Center
07:09AM 39.9172 -84.1678 62° Northeast 169 194 2,600 1,980 Climbing Indianapolis Center
07:09AM 39.9308 -84.1314 64° Northeast 191 220 3,700 2,220 Climbing Indianapolis Center
07:10AM 39.9422 -84.0894 70° East 259 298 4,900 2,700 Climbing Indianapolis Center
07:10AM 39.9503 -84.0419 78° East 249 287 6,400 2,880 Climbing Indianapolis Center
07:11AM 39.9625 -83.7586 83° East  Level FlightAware Approximate
07:11AM 39.9639 -83.9425 80° East 272 313 9,400  Level Indianapolis Center
07:12AM 39.9840 -83.6046 79° East  Level FlightAware Approximate
07:12AM 40.0094 -83.8567 55° Northeast 292 336 11,800  Level Indianapolis Center
07:13AM 40.0107 -83.4520 74° East  Level FlightAware Approximate
07:13AM 40.0706 -83.7689 48° Northeast 319 367 13,500  Level Indianapolis Center
07:14AM 40.1261 -83.6897 47° Northeast 344 396 14,900 720 Climbing Indianapolis Center
07:15AM 40.1994 -83.5856 47° Northeast 381 438 15,000  Climbing Indianapolis Center
07:16AM 40.2708 -83.4811 48° Northeast 381 438 15,000  Level Indianapolis Center
07:17AM 40.3444 -83.3736 48° Northeast 391 450 15,000  Level Indianapolis Center
07:18AM 40.4197 -83.2653 48° Northeast 397 457 15,000  Level Indianapolis Center
07:19AM 40.4917 -83.1594 48° Northeast 388 447 15,000  Level Indianapolis Center
07:20AM 40.5711 -83.0439 48° Northeast 383 441 15,000 -540 Level Indianapolis Center
07:21AM 40.6425 -82.9392 48° Northeast 381 438 14,000 -1,200 Descending Indianapolis Center
07:22AM 40.7097 -82.8372 49° Northeast 368 423 12,600 -1,440 Descending Indianapolis Center
07:23AM 40.7753 -82.7414 48° Northeast 353 406 11,100 -1,320 Descending Indianapolis Center
07:24AM 40.8372 -82.6478 49° Northeast 340 391 10,000 -720 Descending Indianapolis Center
07:25AM 40.8769 -82.5906 47° Northeast 341 392 10,000  Level Cleveland Center
07:26AM 40.9369 -82.5017 48° Northeast 340 391 10,000  Level Cleveland Center
07:27AM 41.0153 -82.4269 36° Northeast 334 384 10,000  Level Cleveland Center
07:28AM 41.0914 -82.3711 29° Northeast 305 351 10,000 -540 Level Cleveland Center
07:29AM 41.1342 -82.2842 57° Northeast 262 302 9,000 -1,200 Descending Cleveland Center
07:30AM 41.1833 -82.2136 47° Northeast 266 306 7,700 -1,260 Descending Cleveland Center
07:31AM 41.2258 -82.1458 50° Northeast 217 250 6,500 -1,440 Descending Cleveland Center
07:32AM 41.2686 -82.0778 50° Northeast 224 258 4,800 -1,680 Descending Cleveland Center